createdAt,value
2023-02-11T00:00:39.222Z,65.93
2023-02-11T00:03:05.708Z,65.28
2023-02-11T00:05:32.185Z,65.34
2023-02-11T00:07:58.621Z,65.36
2023-02-11T00:10:27.624Z,66.94
2023-02-11T00:12:54.053Z,65.40
2023-02-11T00:15:21.234Z,66.07
2023-02-11T00:17:47.751Z,66.46
2023-02-11T00:20:14.386Z,64.27
2023-02-11T00:22:40.958Z,65.02
2023-02-11T00:25:07.689Z,63.42
2023-02-11T00:27:34.139Z,65.85
2023-02-11T00:30:02.172Z,66.68
2023-02-11T00:32:28.744Z,67.31
2023-02-11T00:34:55.444Z,67.31
2023-02-11T00:37:22.537Z,68.12
2023-02-11T00:39:50.090Z,67.45
2023-02-11T00:42:16.922Z,66.18
2023-02-11T00:44:43.360Z,66.73
2023-02-11T00:47:09.847Z,68.52
2023-02-11T00:49:37.018Z,67.37
2023-02-11T00:52:03.741Z,67.19
2023-02-11T00:54:30.155Z,66.65
2023-02-11T00:56:56.645Z,67.15
2023-02-11T00:59:23.039Z,64.75
2023-02-11T01:01:49.610Z,64.51
2023-02-11T01:04:16.257Z,65.65
2023-02-11T01:06:42.671Z,66.83
2023-02-11T01:09:09.217Z,66.77
2023-02-11T01:11:35.775Z,66.86
2023-02-11T01:14:02.568Z,66.88
2023-02-11T01:16:29.116Z,67.68
2023-02-11T01:18:55.805Z,67.74
2023-02-11T01:21:22.238Z,68.15
2023-02-11T01:23:48.664Z,69.71
2023-02-11T01:26:15.089Z,70.71
2023-02-11T01:28:41.594Z,71.97
2023-02-11T01:31:08.213Z,69.72
2023-02-11T01:33:34.770Z,69.61
2023-02-11T01:36:05.637Z,72.51
2023-02-11T01:38:33.007Z,71.33
2023-02-11T01:41:06.198Z,70.84
2023-02-11T01:43:36.378Z,71.86
2023-02-11T01:46:24.721Z,71.16
2023-02-11T01:48:56.021Z,71.60
2023-02-11T01:51:27.613Z,71.17
2023-02-11T01:54:14.118Z,69.60
2023-02-11T01:57:03.517Z,68.38
2023-02-11T01:59:34.837Z,71.62
2023-02-11T02:02:08.057Z,73.18
2023-02-11T02:04:42.334Z,70.46
2023-02-11T02:07:19.183Z,69.94
2023-02-11T02:09:52.521Z,70.76
2023-02-11T02:12:18.980Z,72.98
2023-02-11T02:14:45.440Z,71.72
2023-02-11T02:17:29.082Z,73.41
2023-02-11T02:20:24.402Z,71.11
2023-02-11T02:23:32.450Z,72.93
2023-02-11T02:26:08.066Z,72.86
2023-02-11T02:28:34.483Z,73.65
2023-02-11T02:31:25.515Z,71.33
2023-02-11T02:34:06.723Z,71.91
2023-02-11T02:36:55.949Z,74.12
2023-02-11T02:39:28.939Z,73.04
2023-02-11T02:41:56.991Z,74.28
2023-02-11T02:44:23.978Z,71.85
2023-02-11T02:46:50.497Z,72.92
2023-02-11T02:49:17.486Z,74.40
2023-02-11T02:51:58.758Z,73.37
2023-02-11T02:54:52.583Z,73.22
2023-02-11T02:57:28.667Z,73.88
2023-02-11T03:00:11.158Z,69.97
2023-02-11T03:02:47.807Z,71.47
2023-02-11T03:05:21.741Z,72.78
2023-02-11T03:07:57.236Z,74.69
2023-02-11T03:10:29.083Z,73.63
2023-02-11T03:12:57.052Z,75.47
2023-02-11T03:15:26.941Z,73.81
2023-02-11T03:17:56.200Z,74.70
2023-02-11T03:20:23.247Z,74.09
2023-02-11T03:22:58.664Z,75.19
2023-02-11T03:25:32.336Z,75.10
2023-02-11T03:28:27.073Z,75.41
2023-02-11T03:31:02.449Z,72.69
2023-02-11T03:33:37.603Z,75.51
2023-02-11T03:36:09.283Z,73.81
2023-02-11T03:38:39.598Z,73.71
2023-02-11T03:41:07.995Z,72.27
2023-02-11T03:43:40.874Z,74.30
2023-02-11T03:46:09.620Z,75.34
2023-02-11T03:48:44.354Z,74.86
2023-02-11T03:51:13.756Z,74.13
2023-02-11T03:53:44.484Z,73.96
2023-02-11T03:56:16.877Z,75.29
2023-02-11T03:58:46.486Z,71.91
2023-02-11T04:01:13.091Z,76.42
2023-02-11T04:03:39.598Z,74.90
2023-02-11T04:06:06.511Z,75.18
2023-02-11T04:08:33.262Z,75.11
2023-02-11T04:10:59.706Z,74.66
2023-02-11T04:13:26.228Z,77.07
2023-02-11T04:15:52.876Z,74.41
2023-02-11T04:18:19.479Z,75.37
2023-02-11T04:20:45.941Z,78.66
2023-02-11T04:23:12.375Z,77.62
2023-02-11T04:25:38.779Z,75.46
2023-02-11T04:28:05.321Z,74.70
2023-02-11T04:30:31.772Z,74.53
2023-02-11T04:32:58.856Z,77.48
2023-02-11T04:35:25.613Z,78.47
2023-02-11T04:37:52.033Z,76.77
2023-02-11T04:40:18.599Z,78.43
2023-02-11T04:42:45.026Z,78.84
2023-02-11T04:45:11.452Z,79.14
2023-02-11T04:47:38.031Z,79.46
2023-02-11T04:50:05.215Z,81.56
2023-02-11T04:52:31.670Z,79.24
2023-02-11T04:54:58.043Z,77.63
2023-02-11T04:57:24.531Z,80.04
2023-02-11T04:59:50.960Z,79.59
2023-02-11T05:02:17.414Z,79.96
2023-02-11T05:04:43.843Z,79.07
2023-02-11T05:07:10.247Z,80.42
2023-02-11T05:09:36.864Z,81.44
2023-02-11T05:12:03.438Z,81.51
2023-02-11T05:14:29.906Z,82.78
2023-02-11T05:16:56.368Z,79.37
2023-02-11T05:19:22.839Z,79.10
2023-02-11T05:22:01.757Z,82.10
2023-02-11T05:24:29.852Z,81.78
2023-02-11T05:26:56.273Z,81.83
2023-02-11T05:29:22.697Z,81.53
2023-02-11T05:31:49.165Z,81.95
2023-02-11T05:34:15.586Z,81.92
2023-02-11T05:36:42.022Z,80.87
2023-02-11T05:39:08.454Z,79.69
2023-02-11T05:41:35.013Z,80.21
2023-02-11T05:44:01.436Z,80.91
2023-02-11T05:46:27.928Z,77.90
2023-02-11T05:48:56.535Z,81.11
2023-02-11T05:51:25.202Z,80.99
2023-02-11T05:53:51.677Z,79.33
2023-02-11T05:56:18.104Z,81.35
2023-02-11T05:58:44.554Z,78.84
2023-02-11T06:01:10.981Z,78.71
2023-02-11T06:03:37.600Z,77.92
2023-02-11T06:06:04.387Z,79.33
2023-02-11T06:08:30.819Z,79.21
2023-02-11T06:10:57.244Z,78.48
2023-02-11T06:13:23.677Z,80.07
2023-02-11T06:15:57.804Z,79.17
2023-02-11T06:18:24.331Z,80.86
2023-02-11T06:20:50.748Z,79.20
2023-02-11T06:23:17.169Z,80.07
2023-02-11T06:25:43.564Z,78.54
2023-02-11T06:28:10.705Z,80.46
2023-02-11T06:30:38.168Z,81.28
2023-02-11T06:33:04.873Z,80.91
2023-02-11T06:35:33.365Z,76.79
2023-02-11T06:37:59.776Z,79.21
2023-02-11T06:40:26.234Z,80.24
2023-02-11T06:42:53.165Z,81.74
2023-02-11T06:45:20.598Z,81.15
2023-02-11T06:47:48.084Z,78.29
2023-02-11T06:50:14.810Z,79.54
2023-02-11T06:52:41.646Z,79.95
2023-02-11T06:55:08.290Z,78.58
2023-02-11T06:57:34.761Z,77.90
2023-02-11T07:00:01.179Z,76.08
2023-02-11T07:02:27.811Z,77.21
2023-02-11T07:04:54.223Z,78.14
2023-02-11T07:07:20.653Z,77.81
2023-02-11T07:09:47.089Z,79.04
2023-02-11T07:12:13.501Z,78.03
2023-02-11T07:14:40.326Z,74.66
2023-02-11T07:17:06.842Z,75.72
2023-02-11T07:19:33.273Z,76.41
2023-02-11T07:21:59.798Z,77.23
2023-02-11T07:24:26.348Z,75.94
2023-02-11T07:26:54.083Z,78.65
2023-02-11T07:29:20.505Z,77.50
2023-02-11T07:31:47.058Z,78.38
2023-02-11T07:34:13.615Z,77.80
2023-02-11T07:36:40.407Z,77.47
2023-02-11T07:39:06.802Z,79.30
2023-02-11T07:41:37.771Z,78.50
2023-02-11T07:44:04.850Z,77.68
2023-02-11T07:46:31.608Z,78.54
2023-02-11T07:48:58.277Z,78.09
2023-02-11T07:51:27.426Z,78.60
2023-02-11T07:53:55.362Z,78.26
2023-02-11T07:56:23.009Z,79.45
2023-02-11T07:58:49.928Z,78.90
2023-02-11T08:01:34.383Z,77.48
2023-02-11T08:04:02.555Z,78.19
2023-02-11T08:06:31.852Z,75.90
2023-02-11T08:08:58.795Z,75.47
2023-02-11T08:11:27.528Z,77.41
2023-02-11T08:13:55.969Z,78.09
2023-02-11T08:16:22.385Z,76.78
2023-02-11T08:18:50.268Z,76.33
2023-02-11T08:21:17.175Z,77.38
2023-02-11T08:23:44.676Z,76.95
2023-02-11T08:26:18.083Z,76.97
2023-02-11T08:28:45.895Z,79.27
2023-02-11T08:31:24.607Z,78.24
2023-02-11T08:33:53.225Z,76.87
2023-02-11T08:36:25.638Z,75.21
2023-02-11T08:38:58.694Z,75.99
2023-02-11T08:41:33.608Z,78.74
2023-02-11T08:44:00.107Z,79.14
2023-02-11T08:46:27.271Z,77.94
2023-02-11T08:48:53.817Z,77.51
2023-02-11T08:51:23.364Z,78.18
2023-02-11T08:53:51.394Z,77.51
2023-02-11T08:56:19.811Z,77.60
2023-02-11T08:58:47.079Z,76.98
2023-02-11T09:01:22.880Z,78.82
2023-02-11T09:03:49.955Z,78.50
2023-02-11T09:06:18.525Z,77.10
2023-02-11T09:08:47.488Z,77.73
2023-02-11T09:11:13.967Z,76.72
2023-02-11T09:13:42.943Z,79.04
2023-02-11T09:16:17.038Z,78.71
2023-02-11T09:18:44.395Z,79.61
2023-02-11T09:21:10.847Z,77.26
2023-02-11T09:23:37.401Z,80.15
2023-02-11T09:26:09.576Z,77.78
2023-02-11T09:28:36.268Z,77.25
2023-02-11T09:31:07.098Z,78.42
2023-02-11T09:33:34.109Z,76.56
2023-02-11T09:36:04.720Z,78.63
2023-02-11T09:38:31.534Z,80.88
2023-02-11T09:40:58.534Z,76.95
2023-02-11T09:43:39.299Z,78.92
2023-02-11T09:46:06.128Z,80.07
2023-02-11T09:48:39.973Z,79.83
2023-02-11T09:51:12.925Z,80.18
2023-02-11T09:53:42.365Z,80.53
2023-02-11T09:56:15.151Z,80.66
2023-02-11T09:58:44.432Z,79.22
2023-02-11T10:01:39.991Z,79.67
2023-02-11T10:04:50.796Z,79.89
2023-02-11T10:07:43.363Z,81.32
2023-02-11T10:10:37.663Z,80.07
2023-02-11T10:13:22.159Z,80.85
2023-02-11T10:16:21.261Z,80.60
2023-02-11T10:19:08.204Z,80.58
2023-02-11T10:21:47.724Z,79.73
2023-02-11T10:24:16.290Z,80.97
2023-02-11T10:26:43.997Z,81.38
2023-02-11T10:29:35.403Z,82.48
2023-02-11T10:32:06.990Z,80.22
2023-02-11T10:34:33.940Z,81.51
2023-02-11T10:37:00.477Z,82.80
2023-02-11T10:39:27.637Z,81.46
2023-02-11T10:41:59.219Z,81.53
2023-02-11T10:44:46.678Z,82.00
2023-02-11T10:47:20.636Z,81.77
2023-02-11T10:49:47.434Z,83.81
2023-02-11T10:52:25.618Z,82.50
2023-02-11T10:54:57.900Z,83.13
2023-02-11T10:57:28.153Z,81.51
2023-02-11T11:00:02.638Z,81.23
2023-02-11T11:02:35.965Z,82.77
2023-02-11T11:05:16.362Z,81.57
2023-02-11T11:07:53.805Z,79.75
2023-02-11T11:10:43.621Z,81.62
2023-02-11T11:13:40.939Z,80.88
2023-02-11T11:16:13.643Z,81.69
2023-02-11T11:18:42.254Z,80.32
2023-02-11T11:21:24.115Z,81.23
2023-02-11T11:23:55.018Z,82.47
2023-02-11T11:26:22.223Z,82.20
2023-02-11T11:29:06.975Z,83.29
2023-02-11T11:31:45.096Z,79.88
2023-02-11T11:34:23.707Z,80.24
2023-02-11T11:36:50.596Z,82.29
2023-02-11T11:39:25.013Z,82.56
2023-02-11T11:41:54.243Z,79.78
2023-02-11T11:44:35.118Z,81.63
2023-02-11T11:47:25.258Z,82.47
2023-02-11T11:50:05.832Z,83.34
2023-02-11T11:52:32.222Z,81.33
2023-02-11T11:55:10.920Z,79.18
2023-02-11T11:57:39.380Z,81.21
2023-02-11T12:00:15.399Z,79.21
2023-02-11T12:02:50.820Z,79.81
2023-02-11T12:05:23.092Z,80.74
2023-02-11T12:08:09.348Z,79.06
2023-02-11T12:10:52.226Z,81.78
2023-02-11T12:13:18.914Z,80.33
2023-02-11T12:15:45.442Z,77.11
2023-02-11T12:18:14.571Z,77.15
2023-02-11T12:20:59.939Z,78.36
2023-02-11T12:23:52.583Z,79.36
2023-02-11T12:26:24.278Z,79.46
2023-02-11T12:29:14.027Z,80.45
2023-02-11T12:32:05.003Z,78.71
2023-02-11T12:34:54.287Z,77.50
2023-02-11T12:37:41.811Z,79.36
2023-02-11T12:40:20.199Z,80.33
2023-02-11T12:43:12.035Z,81.52
2023-02-11T12:45:48.340Z,79.88
2023-02-11T12:48:40.754Z,81.78
2023-02-11T12:51:16.799Z,80.74
2023-02-11T12:53:46.080Z,81.69
2023-02-11T12:56:26.742Z,80.37
2023-02-11T12:58:57.382Z,80.75
2023-02-11T13:01:29.254Z,79.45
2023-02-11T13:04:13.612Z,82.09
2023-02-11T13:06:55.481Z,80.17
2023-02-11T13:09:54.824Z,78.49
2023-02-11T13:12:40.237Z,79.29
2023-02-11T13:15:12.820Z,80.49
2023-02-11T13:17:56.380Z,77.92
2023-02-11T13:20:31.993Z,79.25
2023-02-11T13:23:09.598Z,78.42
2023-02-11T13:25:43.046Z,77.69
2023-02-11T13:28:23.216Z,77.05
2023-02-11T13:30:57.696Z,81.06
2023-02-11T13:33:35.465Z,78.46
2023-02-11T13:36:04.451Z,76.84
2023-02-11T13:38:32.815Z,76.00
2023-02-11T13:41:23.474Z,78.75
2023-02-11T13:44:08.740Z,78.78
2023-02-11T13:46:57.115Z,76.54
2023-02-11T13:49:35.153Z,74.63
2023-02-11T13:52:05.788Z,77.67
2023-02-11T13:54:39.432Z,77.34
2023-02-11T13:57:20.801Z,77.85
2023-02-11T13:59:55.495Z,77.55
2023-02-11T14:02:49.759Z,77.66
2023-02-11T14:05:42.526Z,80.97
2023-02-11T14:08:30.387Z,76.67
2023-02-11T14:10:56.753Z,77.73
2023-02-11T14:13:30.722Z,76.25
2023-02-11T14:16:36.947Z,78.60
2023-02-11T14:19:06.241Z,75.59
2023-02-11T14:21:41.218Z,77.18
2023-02-11T14:24:10.732Z,76.10
2023-02-11T14:26:49.316Z,78.25
2023-02-11T14:29:45.868Z,80.11
2023-02-11T14:32:22.528Z,78.35
2023-02-11T14:35:10.438Z,80.40
2023-02-11T14:37:51.041Z,79.19
2023-02-11T14:40:27.184Z,80.51
2023-02-11T14:42:55.175Z,77.99
2023-02-11T14:45:26.270Z,78.54
2023-02-11T14:48:03.572Z,79.73
2023-02-11T14:50:52.058Z,77.96
2023-02-11T14:53:22.496Z,79.02
2023-02-11T14:55:54.988Z,81.09
2023-02-11T14:58:29.877Z,81.16
2023-02-11T15:01:09.066Z,81.46
2023-02-11T15:03:47.830Z,78.80
2023-02-11T15:06:21.186Z,82.53
2023-02-11T15:08:53.334Z,80.64
2023-02-11T15:11:22.323Z,80.03
2023-02-11T15:13:50.271Z,78.19
2023-02-11T15:16:21.647Z,79.97
2023-02-11T15:18:55.154Z,76.44
2023-02-11T15:21:29.987Z,79.50
2023-02-11T15:24:06.333Z,79.65
2023-02-11T15:26:33.388Z,79.65
2023-02-11T15:29:00.106Z,79.05
2023-02-11T15:31:28.126Z,76.84
2023-02-11T15:33:54.745Z,78.29
2023-02-11T15:36:28.508Z,79.30
2023-02-11T15:39:18.749Z,79.18
2023-02-11T15:41:45.658Z,81.21
2023-02-11T15:44:28.862Z,79.06
2023-02-11T15:46:55.349Z,80.86
2023-02-11T15:49:23.220Z,78.46
2023-02-11T15:51:50.609Z,80.48
2023-02-11T15:54:23.908Z,79.51
2023-02-11T15:56:58.894Z,81.06
2023-02-11T15:59:38.197Z,80.14
2023-02-11T16:02:45.470Z,81.35
2023-02-11T16:05:36.259Z,82.15
2023-02-11T16:08:24.503Z,79.99
2023-02-11T16:10:59.015Z,80.45
2023-02-11T16:13:28.242Z,78.49
2023-02-11T16:15:58.356Z,83.80
2023-02-11T16:18:38.156Z,82.08
2023-02-11T16:21:07.736Z,80.54
2023-02-11T16:23:42.186Z,81.80
2023-02-11T16:26:26.767Z,80.78
2023-02-11T16:28:53.725Z,82.88
2023-02-11T16:31:20.319Z,81.17
2023-02-11T16:33:46.814Z,82.69
2023-02-11T16:36:17.021Z,83.44
2023-02-11T16:38:43.438Z,82.71
2023-02-11T16:41:12.679Z,84.49
2023-02-11T16:43:40.195Z,81.65
2023-02-11T16:46:06.750Z,79.93
2023-02-11T16:48:33.595Z,81.29
2023-02-11T16:51:00.021Z,82.98
2023-02-11T16:53:26.544Z,81.25
2023-02-11T16:55:54.338Z,81.20
2023-02-11T16:58:20.811Z,81.36
2023-02-11T17:00:48.736Z,80.72
2023-02-11T17:03:22.977Z,80.88
2023-02-11T17:05:57.870Z,82.84
2023-02-11T17:08:24.412Z,81.03
2023-02-11T17:10:51.139Z,80.69
2023-02-11T17:13:17.754Z,79.62
2023-02-11T17:15:44.180Z,82.91
2023-02-11T17:18:14.228Z,81.48
2023-02-11T17:20:41.601Z,82.23
2023-02-11T17:23:08.224Z,83.63
2023-02-11T17:25:37.167Z,81.62
2023-02-11T17:28:08.112Z,80.28
2023-02-11T17:30:34.771Z,80.44
2023-02-11T17:33:01.372Z,80.85
2023-02-11T17:35:27.762Z,81.63
2023-02-11T17:37:54.139Z,81.81
2023-02-11T17:40:20.700Z,80.84
2023-02-11T17:42:47.094Z,78.67
2023-02-11T17:45:13.804Z,79.83
2023-02-11T17:47:40.356Z,81.74
2023-02-11T17:50:07.953Z,81.47
2023-02-11T17:52:34.671Z,80.68
2023-02-11T17:55:01.099Z,77.87
2023-02-11T17:57:27.603Z,78.23
2023-02-11T17:59:54.097Z,79.53
2023-02-11T18:02:20.622Z,78.84
2023-02-11T18:04:47.093Z,80.66
2023-02-11T18:07:13.601Z,79.69
2023-02-11T18:09:40.925Z,81.23
2023-02-11T18:12:08.044Z,81.63
2023-02-11T18:14:34.629Z,79.66
2023-02-11T18:17:01.194Z,78.88
2023-02-11T18:19:30.557Z,80.52
2023-02-11T18:22:00.563Z,77.58
2023-02-11T18:24:27.415Z,81.68
2023-02-11T18:26:53.866Z,80.47
2023-02-11T18:29:20.339Z,78.06
2023-02-11T18:31:46.869Z,81.87
2023-02-11T18:34:13.457Z,82.71
2023-02-11T18:36:39.894Z,82.62
2023-02-11T18:39:06.381Z,82.16
2023-02-11T18:41:32.971Z,81.16
2023-02-11T18:44:02.682Z,80.78
2023-02-11T18:46:29.704Z,83.81
2023-02-11T18:48:56.445Z,82.40
2023-02-11T18:51:23.146Z,80.76
2023-02-11T18:53:49.627Z,82.19
2023-02-11T18:56:19.112Z,81.77
2023-02-11T18:58:45.934Z,83.85
2023-02-11T19:01:17.963Z,83.24
2023-02-11T19:03:45.181Z,84.05
2023-02-11T19:06:17.467Z,81.30
2023-02-11T19:08:43.998Z,83.16
2023-02-11T19:11:10.688Z,85.69
2023-02-11T19:13:38.103Z,82.38
2023-02-11T19:16:07.357Z,81.66
2023-02-11T19:18:35.589Z,81.27
2023-02-11T19:21:12.131Z,82.69
2023-02-11T19:23:38.856Z,85.36
2023-02-11T19:26:06.330Z,78.66
2023-02-11T19:28:34.122Z,81.83
2023-02-11T19:31:09.752Z,83.01
2023-02-11T19:33:36.802Z,84.90
2023-02-11T19:36:05.921Z,83.03
2023-02-11T19:38:32.592Z,85.28
2023-02-11T19:40:59.072Z,87.19
2023-02-11T19:43:25.794Z,88.06
2023-02-11T19:45:56.657Z,87.90
2023-02-11T19:48:26.293Z,83.36
2023-02-11T19:50:52.886Z,86.14
2023-02-11T19:53:19.570Z,87.34
2023-02-11T19:55:46.193Z,87.88
2023-02-11T19:58:13.361Z,88.27
2023-02-11T20:00:39.970Z,87.48
2023-02-11T20:03:06.641Z,86.81
2023-02-11T20:05:33.214Z,86.25
2023-02-11T20:07:59.730Z,83.71
2023-02-11T20:10:26.723Z,83.43
2023-02-11T20:12:53.166Z,88.11
2023-02-11T20:15:19.558Z,89.57
2023-02-11T20:17:46.013Z,88.13
2023-02-11T20:20:12.877Z,89.45
2023-02-11T20:22:39.290Z,87.44
2023-02-11T20:25:06.284Z,85.65
2023-02-11T20:27:33.320Z,86.72
2023-02-11T20:29:59.727Z,84.92
2023-02-11T20:32:26.170Z,85.84
2023-02-11T20:34:52.657Z,86.48
2023-02-11T20:37:19.108Z,88.28
2023-02-11T20:39:45.522Z,86.76
2023-02-11T20:42:12.158Z,86.66
2023-02-11T20:44:38.715Z,87.00
2023-02-11T20:47:05.240Z,81.62
2023-02-11T20:49:32.104Z,85.98
2023-02-11T20:51:58.522Z,86.22
2023-02-11T20:54:25.828Z,87.01
2023-02-11T20:56:55.291Z,85.63
2023-02-11T20:59:22.576Z,87.06
2023-02-11T21:01:53.522Z,87.26
2023-02-11T21:04:23.680Z,86.73
2023-02-11T21:06:53.805Z,88.35
2023-02-11T21:09:23.639Z,88.37
2023-02-11T21:11:51.594Z,85.68
2023-02-11T21:14:19.864Z,85.79
2023-02-11T21:16:47.173Z,87.10
2023-02-11T21:19:13.638Z,87.98
2023-02-11T21:21:40.196Z,86.67
2023-02-11T21:24:07.157Z,88.21
2023-02-11T21:26:35.387Z,86.17
2023-02-11T21:29:04.005Z,85.73
2023-02-11T21:31:32.413Z,85.92
2023-02-11T21:33:59.547Z,87.81
2023-02-11T21:36:28.832Z,87.93
2023-02-11T21:38:56.065Z,86.40
2023-02-11T21:41:22.897Z,89.05
2023-02-11T21:43:50.453Z,87.39
2023-02-11T21:46:17.647Z,85.10
2023-02-11T21:48:44.169Z,86.49
2023-02-11T21:51:16.417Z,86.70
2023-02-11T21:53:43.180Z,89.18
2023-02-11T21:56:13.298Z,88.35
2023-02-11T21:58:40.035Z,87.93
2023-02-11T22:01:18.794Z,87.68
2023-02-11T22:03:46.598Z,89.46
2023-02-11T22:06:18.840Z,87.82
2023-02-11T22:08:45.291Z,87.38
2023-02-11T22:11:12.518Z,88.33
2023-02-11T22:13:39.894Z,88.33
2023-02-11T22:16:09.761Z,87.67
2023-02-11T22:18:36.865Z,87.54
2023-02-11T22:21:06.578Z,87.83
2023-02-11T22:23:33.837Z,85.84
2023-02-11T22:26:08.517Z,85.99
2023-02-11T22:28:36.991Z,89.13
2023-02-11T22:31:03.654Z,86.65
2023-02-11T22:33:30.641Z,87.96
2023-02-11T22:36:02.197Z,88.78
2023-02-11T22:38:29.346Z,92.04
2023-02-11T22:40:55.774Z,89.19
2023-02-11T22:43:22.264Z,88.43
2023-02-11T22:45:49.074Z,90.40
2023-02-11T22:48:15.742Z,90.16
2023-02-11T22:50:42.229Z,87.42
2023-02-11T22:53:09.171Z,87.37
2023-02-11T22:55:40.051Z,89.28
2023-02-11T22:58:06.538Z,89.75
2023-02-11T23:00:38.239Z,90.25
2023-02-11T23:03:06.303Z,89.96
2023-02-11T23:05:38.242Z,90.41
2023-02-11T23:08:05.221Z,88.48
2023-02-11T23:10:31.760Z,88.83
2023-02-11T23:12:58.214Z,88.91
2023-02-11T23:15:24.656Z,89.76
2023-02-11T23:17:51.060Z,90.80
2023-02-11T23:20:17.524Z,91.31
2023-02-11T23:22:43.910Z,90.05
2023-02-11T23:25:10.600Z,89.73
2023-02-11T23:27:37.038Z,90.00
2023-02-11T23:30:04.555Z,87.71
2023-02-11T23:32:31.126Z,90.22
2023-02-11T23:34:57.907Z,89.94
2023-02-11T23:37:24.319Z,90.16
2023-02-11T23:39:50.771Z,86.57
2023-02-11T23:42:17.228Z,88.26
2023-02-11T23:44:43.618Z,87.31
2023-02-11T23:47:10.031Z,89.81
2023-02-11T23:49:36.483Z,87.93
2023-02-11T23:52:02.991Z,90.26
2023-02-11T23:54:29.443Z,88.56
2023-02-11T23:56:55.855Z,89.26
2023-02-11T23:59:22.281Z,88.60
